Bijsk Zonal'Naja, Russia
Current Conditions -  °F | °C
As of 11:30 AM on Friday 31 Oct 2014 (Local Time) from UNBB Reporting Station
Broken Clouds Broken Clouds  
Wind Chill: 21°   Ceiling: 1400
Heat Index: 32°   Visibility: 6mi
Dew Point: 28°   Wind: 18mph
Humidity: 87%   Direction: 220°SW
Pressure: 30.3"   Gusts: NA
Location:  52.68°N, 84.95°E
Report Text: UNBB 310430Z 22008MPS 9999 BKN014 00/M02 Q1026 NOSIG RMKQFE747/0996 24890532
Loading
Personal Weather Stations






























Interactive Weather Map
Tropical Storm Tracking
New forecast layout! Learn more

10-Day Weather Forecast

Advertisements
Track Severe Weather on mobile